map of CSX home
CSX - Airport
Location
City:  Changsha, Hunan, China
Name:Huanghua International Airport
ICAO:ZGHA
IATA:CSX

Details
Type:Airport (Aerodrome, Airfield)
Use:Public/Civil, International (customs port of entry)
Latitude:2811'N (28.190)
Longitude:11313'E (113.218)
Elevation:220 ft (67 m)
Variation:3.76W (WMM2015 magnetic declination)
-0.06 annual change
Runways:1
Longest:10499 × 148 ft (3200 × 45 m), paved

Time
Time Zone:UTC+8
Local Time:

Weather
METAR:ZGHA 210200Z 32003MPS 300V360 2000 -RA BR SCT007 BKN030 OVC050 11/11 Q1026 BECMG TL0350 3000

Related Locations
Nearby:
Farthest:SANI: 12395 mi / 19947 km
Tinogasta [Tinogasta Airport], K, AR

Find:

   beyond  
but within

Other Information
Maps:
NOTAMs:
Links:
Sources:

  
  • flag of China
  

Sectional Chart

Flight Planning
at skyvector.com

Satellite Image

Google Maps Satellite view

 

Copyright © 2004-2018 Karl L. Swartz. All rights reserved.
The Great Circle Mapper name and logo are trademarks of the Great Circle Mapper.
All other trademarks mentioned herein belong to their respective owners.
Please see credits for attibutions and further copyright information.

  Follow gcmap on Facebook Follow gcmap on Twitter Follow gcmap on Google+ GCmap on LinkedIn

hCard Microformat

Geo Microformat